createdAt,value
2023-08-05T00:00:16.545Z,19.66
2023-08-05T00:04:39.582Z,19.55
2023-08-05T00:08:42.764Z,19.45
2023-08-05T00:12:53.968Z,19.37
2023-08-05T00:34:02.620Z,19.28
2023-08-05T00:38:05.537Z,19.31
2023-08-05T00:42:08.442Z,19.29
2023-08-05T00:46:12.961Z,19.32
2023-08-05T00:50:16.297Z,19.30
2023-08-05T00:54:19.408Z,19.26
2023-08-05T00:58:22.940Z,19.20
2023-08-05T01:02:25.890Z,19.21
2023-08-05T01:06:29.418Z,19.03
2023-08-05T01:10:32.764Z,18.80
2023-08-05T01:14:35.701Z,18.66
2023-08-05T01:18:40.522Z,18.61
2023-08-05T01:22:52.731Z,18.63
2023-08-05T01:26:56.945Z,18.53
2023-08-05T01:31:02.296Z,18.52
2023-08-05T01:35:07.840Z,18.58
2023-08-05T01:39:10.755Z,18.66
2023-08-05T01:43:13.728Z,18.69
2023-08-05T01:47:16.670Z,18.73
2023-08-05T01:51:20.071Z,18.73
2023-08-05T01:55:26.150Z,18.76
2023-08-05T01:59:29.212Z,18.79
2023-08-05T02:03:32.475Z,18.83
2023-08-05T02:07:35.517Z,18.92
2023-08-05T02:11:38.515Z,18.87
2023-08-05T02:16:35.406Z,18.66
2023-08-05T02:20:38.510Z,18.56
2023-08-05T02:24:41.474Z,18.49
2023-08-05T02:28:46.087Z,18.30
2023-08-05T02:32:49.095Z,18.23
2023-08-05T02:36:52.471Z,18.14
2023-08-05T02:41:08.586Z,18.07
2023-08-05T02:45:11.497Z,18.10
2023-08-05T02:50:05.247Z,17.97
2023-08-05T02:54:08.271Z,17.99
2023-08-05T02:58:33.573Z,18.05
2023-08-05T03:02:36.610Z,18.12
2023-08-05T03:06:40.408Z,18.22
2023-08-05T03:10:43.654Z,18.23
2023-08-05T03:14:46.577Z,18.28
2023-08-05T03:18:51.851Z,18.41
2023-08-05T03:22:55.417Z,18.41
2023-08-05T03:26:58.490Z,18.35
2023-08-05T03:31:01.389Z,18.28
2023-08-05T03:35:04.579Z,18.22
2023-08-05T03:39:07.537Z,18.23
2023-08-05T03:43:10.650Z,18.29
2023-08-05T03:47:13.652Z,18.25
2023-08-05T03:51:17.150Z,18.23
2023-08-05T03:55:21.122Z,18.23
2023-08-05T03:59:24.450Z,18.21
2023-08-05T04:03:27.449Z,18.17
2023-08-05T04:07:30.791Z,18.16
2023-08-05T04:11:35.188Z,18.21
2023-08-05T04:15:39.791Z,18.28
2023-08-05T04:19:44.365Z,18.40
2023-08-05T04:43:25.663Z,18.39
2023-08-05T05:05:10.003Z,18.84
2023-08-05T05:09:12.941Z,18.99
2023-08-05T05:13:15.968Z,19.12
2023-08-05T05:17:18.992Z,19.14
2023-08-05T05:21:22.206Z,19.17
2023-08-05T05:25:25.299Z,19.11
2023-08-05T05:29:31.365Z,19.11
2023-08-05T05:33:34.376Z,19.12
2023-08-05T05:37:37.330Z,19.03
2023-08-05T05:41:40.271Z,18.90
2023-08-05T05:45:45.637Z,18.82
2023-08-05T05:49:58.962Z,18.78
2023-08-05T05:54:01.962Z,18.81
2023-08-05T05:58:07.063Z,18.83
2023-08-05T06:02:10.067Z,18.77
2023-08-05T06:06:13.777Z,18.75
2023-08-05T06:10:16.798Z,18.73
2023-08-05T06:14:20.667Z,18.73
2023-08-05T06:18:28.810Z,18.76
2023-08-05T06:22:31.941Z,18.79
2023-08-05T06:26:35.045Z,18.79
2023-08-05T06:30:45.474Z,18.93
2023-08-05T06:34:48.454Z,19.07
2023-08-05T06:38:51.484Z,19.15
2023-08-05T06:42:54.494Z,19.21
2023-08-05T06:46:57.424Z,19.26
2023-08-05T06:51:00.539Z,19.30
2023-08-05T06:55:05.423Z,19.35
2023-08-05T06:59:10.831Z,19.37
2023-08-05T07:03:13.774Z,19.45
2023-08-05T07:07:44.431Z,19.54
2023-08-05T07:11:47.448Z,19.64
2023-08-05T07:16:04.225Z,19.71
2023-08-05T07:20:09.688Z,19.81
2023-08-05T07:24:40.555Z,19.87
2023-08-05T07:28:45.037Z,19.90
2023-08-05T07:32:48.079Z,19.82
2023-08-05T07:36:51.381Z,19.73
2023-08-05T07:40:58.286Z,19.67
2023-08-05T07:45:07.311Z,19.60
2023-08-05T07:49:12.578Z,19.56
2023-08-05T07:53:25.294Z,19.49
2023-08-05T07:57:28.289Z,19.45
2023-08-05T08:01:35.137Z,19.45
2023-08-05T08:05:38.414Z,19.49
2023-08-05T08:09:41.488Z,19.47
2023-08-05T08:13:44.747Z,19.43
2023-08-05T08:18:13.068Z,19.47
2023-08-05T08:22:16.505Z,19.53
2023-08-05T08:27:11.048Z,19.54
2023-08-05T08:31:14.057Z,19.53
2023-08-05T08:35:17.335Z,19.63
2023-08-05T08:39:20.408Z,19.72
2023-08-05T08:43:23.540Z,19.77
2023-08-05T08:47:27.462Z,19.86
2023-08-05T08:51:30.749Z,19.93
2023-08-05T08:56:00.277Z,19.96
2023-08-05T09:00:04.284Z,19.99
2023-08-05T09:04:09.596Z,20.09
2023-08-05T09:08:13.634Z,20.26
2023-08-05T09:12:17.820Z,20.48
2023-08-05T09:16:21.015Z,20.73
2023-08-05T09:20:26.150Z,20.90
2023-08-05T09:24:31.399Z,21.04
2023-08-05T09:28:34.589Z,21.14
2023-08-05T09:32:40.352Z,21.20
2023-08-05T09:36:43.634Z,21.15
2023-08-05T09:40:49.494Z,21.10
2023-08-05T09:45:00.304Z,21.10
2023-08-05T09:49:03.920Z,21.02
2023-08-05T09:53:10.650Z,20.91
2023-08-05T09:57:15.471Z,20.80
2023-08-05T10:01:20.403Z,20.68
2023-08-05T10:05:26.471Z,20.55
2023-08-05T10:09:32.153Z,20.49
2023-08-05T10:13:44.679Z,20.53
2023-08-05T10:17:49.915Z,20.60
2023-08-05T10:21:53.550Z,20.56
2023-08-05T10:26:05.080Z,20.48
2023-08-05T10:30:15.997Z,20.44
2023-08-05T10:34:19.745Z,20.26
2023-08-05T10:38:24.582Z,20.17
2023-08-05T10:42:31.091Z,20.12
2023-08-05T10:46:34.433Z,20.09
2023-08-05T10:50:39.789Z,20.03
2023-08-05T10:54:43.086Z,20.04
2023-08-05T10:58:50.841Z,20.09
2023-08-05T11:03:26.640Z,20.18
2023-08-05T11:07:32.251Z,20.23
2023-08-05T11:11:36.010Z,20.15
2023-08-05T11:15:42.686Z,20.18
2023-08-05T11:19:56.619Z,20.07
2023-08-05T11:24:00.736Z,20.06
2023-08-05T11:28:07.088Z,20.04
2023-08-05T11:32:10.309Z,19.81
2023-08-05T11:36:15.058Z,19.72
2023-08-05T11:40:18.648Z,19.63
2023-08-05T11:44:23.212Z,19.65
2023-08-05T11:48:27.309Z,19.67
2023-08-05T11:52:30.629Z,19.77
2023-08-05T11:56:52.355Z,19.82
2023-08-05T12:01:01.596Z,19.87
2023-08-05T12:05:08.692Z,19.88
2023-08-05T12:09:13.174Z,19.90
2023-08-05T12:13:17.849Z,19.93
2023-08-05T12:17:20.924Z,19.99
2023-08-05T12:21:49.001Z,20.01
2023-08-05T12:25:51.983Z,20.03
2023-08-05T12:29:56.457Z,20.06
2023-08-05T12:33:59.396Z,20.05
2023-08-05T12:38:02.645Z,20.05
2023-08-05T12:42:07.087Z,20.05
2023-08-05T12:46:10.291Z,20.05
2023-08-05T12:51:05.240Z,20.03
2023-08-05T12:55:08.889Z,20.06
2023-08-05T12:59:12.112Z,20.08
2023-08-05T13:03:15.211Z,20.07
2023-08-05T13:07:18.363Z,20.06
2023-08-05T13:11:25.618Z,20.01
2023-08-05T13:15:28.549Z,19.95
2023-08-05T13:19:31.555Z,19.91
2023-08-05T13:23:34.570Z,19.87
2023-08-05T13:27:37.518Z,19.83
2023-08-05T13:31:40.608Z,19.78
2023-08-05T13:35:43.585Z,19.74
2023-08-05T13:39:50.626Z,19.75
2023-08-05T13:43:53.647Z,19.74
2023-08-05T13:47:56.619Z,19.75
2023-08-05T13:51:59.637Z,19.72
2023-08-05T13:56:03.474Z,19.64
2023-08-05T14:00:07.516Z,19.56
2023-08-05T14:04:10.550Z,19.50
2023-08-05T14:08:13.521Z,19.43
2023-08-05T14:12:18.755Z,19.41
2023-08-05T14:16:21.730Z,19.37
2023-08-05T14:20:24.794Z,19.35
2023-08-05T14:24:27.935Z,19.33
2023-08-05T14:28:31.007Z,19.31
2023-08-05T14:32:36.383Z,19.28
2023-08-05T14:36:39.314Z,19.29
2023-08-05T14:40:42.493Z,19.31
2023-08-05T14:44:45.641Z,19.35
2023-08-05T14:48:48.845Z,19.35
2023-08-05T14:52:52.142Z,19.35
2023-08-05T14:56:55.088Z,19.35
2023-08-05T15:00:58.047Z,19.34
2023-08-05T15:05:08.195Z,19.33
2023-08-05T15:09:12.615Z,19.29
2023-08-05T15:13:15.670Z,19.23
2023-08-05T15:17:18.859Z,19.20
2023-08-05T15:21:21.845Z,19.20
2023-08-05T15:25:25.035Z,19.19
2023-08-05T15:29:28.147Z,19.16
2023-08-05T15:33:31.236Z,19.11
2023-08-05T15:37:34.314Z,19.10
2023-08-05T15:41:37.375Z,19.13
2023-08-05T15:45:43.332Z,19.13
2023-08-05T15:49:46.707Z,19.13
2023-08-05T15:53:49.844Z,19.12
2023-08-05T15:57:53.583Z,19.04
2023-08-05T16:01:56.589Z,19.00
2023-08-05T16:06:11.810Z,18.99
2023-08-05T16:10:14.854Z,18.95
2023-08-05T16:14:17.847Z,18.93
2023-08-05T16:18:20.767Z,18.90
2023-08-05T16:22:26.157Z,18.87
2023-08-05T16:26:29.351Z,18.82
2023-08-05T16:30:34.899Z,18.80
2023-08-05T16:34:37.935Z,18.78
2023-08-05T16:38:45.040Z,18.77
2023-08-05T16:42:48.422Z,18.69
2023-08-05T16:46:55.989Z,18.71
2023-08-05T16:50:59.097Z,18.73
2023-08-05T16:55:02.609Z,18.74
2023-08-05T16:59:07.853Z,18.73
2023-08-05T17:03:13.258Z,18.76
2023-08-05T17:07:16.422Z,18.79
2023-08-05T17:11:19.412Z,18.83
2023-08-05T17:15:22.450Z,18.86
2023-08-05T17:19:25.550Z,18.92
2023-08-05T17:23:28.617Z,18.94
2023-08-05T17:27:31.614Z,18.89
2023-08-05T17:31:34.685Z,18.83
2023-08-05T17:35:37.712Z,18.79
2023-08-05T17:39:40.810Z,18.80
2023-08-05T17:43:47.122Z,18.77
2023-08-05T17:47:50.124Z,18.71
2023-08-05T17:51:54.474Z,18.65
2023-08-05T17:55:57.515Z,18.62
2023-08-05T18:00:00.576Z,18.56
2023-08-05T18:04:59.220Z,18.45
2023-08-05T18:09:02.216Z,18.24
2023-08-05T18:13:06.521Z,18.12
2023-08-05T18:17:09.684Z,18.06
2023-08-05T18:21:13.010Z,18.04
2023-08-05T18:25:16.000Z,18.04
2023-08-05T18:29:21.278Z,18.04
2023-08-05T18:33:24.274Z,18.05
2023-08-05T18:37:27.264Z,18.01
2023-08-05T18:41:30.740Z,17.96
2023-08-05T18:45:34.568Z,17.92
2023-08-05T18:49:37.743Z,17.82
2023-08-05T18:53:42.105Z,17.72
2023-08-05T18:57:45.061Z,17.63
2023-08-05T19:01:48.181Z,17.61
2023-08-05T19:05:56.369Z,17.55
2023-08-05T19:10:02.415Z,17.56
2023-08-05T19:14:07.182Z,17.50
2023-08-05T19:18:18.424Z,17.47
2023-08-05T19:22:21.375Z,17.45
2023-08-05T19:26:24.403Z,17.41
2023-08-05T19:30:27.348Z,17.42
2023-08-05T19:34:30.328Z,17.38
2023-08-05T19:38:33.395Z,17.36
2023-08-05T19:42:36.500Z,17.38
2023-08-05T19:46:40.655Z,17.44
2023-08-05T19:50:43.812Z,17.48
2023-08-05T19:54:46.816Z,17.48
2023-08-05T19:58:50.837Z,17.49
2023-08-05T20:02:54.717Z,17.45
2023-08-05T20:07:00.407Z,17.46
2023-08-05T20:11:04.735Z,17.45
2023-08-05T20:15:08.364Z,17.43
2023-08-05T20:19:11.738Z,17.45
2023-08-05T20:23:17.102Z,17.47
2023-08-05T20:28:23.684Z,17.49
2023-08-05T20:32:27.393Z,17.53
2023-08-05T20:36:30.568Z,17.50
2023-08-05T20:40:37.726Z,17.47
2023-08-05T20:49:26.433Z,17.35
2023-08-05T20:53:29.485Z,17.41
2023-08-05T20:57:32.465Z,17.42
2023-08-05T21:01:35.567Z,17.46
2023-08-05T21:06:42.134Z,17.55
2023-08-05T21:10:45.245Z,17.58
2023-08-05T21:14:48.143Z,17.56
2023-08-05T21:18:51.092Z,17.47
2023-08-05T21:22:54.101Z,17.48
2023-08-05T21:27:27.317Z,17.48
2023-08-05T21:31:30.212Z,17.39
2023-08-05T21:35:33.721Z,17.31
2023-08-05T21:40:31.907Z,17.24
2023-08-05T21:44:34.850Z,17.20
2023-08-05T21:48:38.196Z,17.13
2023-08-05T21:52:41.090Z,17.13
2023-08-05T21:56:43.991Z,17.08
2023-08-05T22:01:18.057Z,16.99
2023-08-05T22:05:21.101Z,16.90
2023-08-05T22:09:24.194Z,16.83
2023-08-05T22:13:27.195Z,16.85
2023-08-05T22:17:30.862Z,16.84
2023-08-05T22:21:33.792Z,16.86
2023-08-05T22:25:36.727Z,16.86
2023-08-05T22:29:39.687Z,16.83
2023-08-05T22:34:09.354Z,16.82
2023-08-05T22:38:12.302Z,16.78
2023-08-05T22:42:15.316Z,16.68
2023-08-05T22:46:20.516Z,16.63
2023-08-05T22:50:23.844Z,16.56
2023-08-05T22:54:29.069Z,16.58
2023-08-05T22:58:32.195Z,16.59
2023-08-05T23:02:36.709Z,16.56
2023-08-05T23:06:40.065Z,16.53
2023-08-05T23:10:46.299Z,16.48
2023-08-05T23:14:52.736Z,16.48
2023-08-05T23:18:55.849Z,16.42
2023-08-05T23:22:58.951Z,16.35
2023-08-05T23:27:30.614Z,16.26
2023-08-05T23:31:34.253Z,16.22
2023-08-05T23:35:40.270Z,16.16
2023-08-05T23:40:11.603Z,16.14
2023-08-05T23:44:14.637Z,16.07
2023-08-05T23:48:17.976Z,15.99
2023-08-05T23:52:20.877Z,16.03
2023-08-05T23:56:23.775Z,16.02
